Terminal Aerodrome Forecast
Issued by NWS

Home | Current Version | Previous Version | Text Only | Print | Product List | Glossary On
Versions: 1 2 3 4 5 6 7 8 9 10 11 12 13
000
FTUS44 KTSA 300500
TAFBVO
TAF
KBVO 300520Z 3006/3106 00000KT P6SM BKN100
     FM300900 VRB03KT P6SM VCSH BKN050
      TEMPO 3012/3016 4SM -RA OVC050
     FM301600 VRB03KT 4SM -RA OVC025
     FM310000 09005KT P6SM VCSH OVC025 PROB30 3100/3106 4SM -RA BR
      BKN025=

USA.gov is the U.S. government's official web portal to all federal, state and local government web resources and services.